createdAt,value
2018-10-19T00:02:21.738Z,101943.74
2018-10-19T00:04:51.861Z,101941.05
2018-10-19T00:07:23.221Z,101939.22
2018-10-19T00:09:54.079Z,101941.84
2018-10-19T00:12:24.512Z,101936.50
2018-10-19T00:14:54.282Z,101936.60
2018-10-19T00:17:25.821Z,101933.12
2018-10-19T00:19:56.654Z,101943.08
2018-10-19T00:22:29.927Z,101931.59
2018-10-19T00:25:04.536Z,101927.27
2018-10-19T00:27:35.691Z,101925.43
2018-10-19T00:30:15.424Z,101928.55
2018-10-19T00:32:46.189Z,101924.02
2018-10-19T00:35:18.897Z,101928.11
2018-10-19T00:37:50.070Z,101929.10
2018-10-19T00:40:20.637Z,101920.26
2018-10-19T00:42:51.868Z,101924.87
2018-10-19T00:45:27.121Z,101921.11
2018-10-19T00:47:58.272Z,101924.09
2018-10-19T00:50:28.770Z,101922.39
2018-10-19T00:53:02.877Z,101922.81
2018-10-19T00:55:33.337Z,101922.39
2018-10-19T00:58:13.923Z,101921.96
2018-10-19T01:00:45.324Z,101920.84
2018-10-19T01:03:16.725Z,101918.78
2018-10-19T01:05:50.687Z,101920.00
2018-10-19T01:08:36.386Z,101924.02
2018-10-19T01:11:08.786Z,101918.36
2018-10-19T01:13:41.930Z,101925.14
2018-10-19T01:16:14.652Z,101919.41
2018-10-19T01:18:46.447Z,101917.77
2018-10-19T01:21:20.059Z,101916.72
2018-10-19T01:23:52.330Z,101911.53
2018-10-19T01:26:23.601Z,101911.70
2018-10-19T01:28:55.791Z,101839.92
2018-10-19T01:31:36.733Z,101836.10
2018-10-19T01:34:09.095Z,101910.05
2018-10-19T01:36:43.444Z,101911.52
2018-10-19T01:39:14.518Z,101907.01
2018-10-19T01:41:46.805Z,101907.91
2018-10-19T01:44:18.492Z,101904.23
2018-10-19T01:46:50.136Z,101916.25
2018-10-19T01:49:23.221Z,101906.99
2018-10-19T01:51:55.702Z,101909.55
2018-10-19T01:54:25.301Z,101907.30
2018-10-19T01:56:57.854Z,101907.73
2018-10-19T01:59:28.627Z,101900.16
2018-10-19T02:01:59.372Z,101905.34
2018-10-19T02:04:30.417Z,101914.98
2018-10-19T02:07:00.838Z,101915.72
2018-10-19T02:09:32.963Z,101917.08
2018-10-19T02:12:09.203Z,101918.84
2018-10-19T02:14:42.323Z,101918.73
2018-10-19T02:17:13.984Z,101920.66
2018-10-19T02:19:44.225Z,101918.67
2018-10-19T02:22:16.298Z,101923.92
2018-10-19T02:24:48.546Z,101919.34
2018-10-19T02:27:19.573Z,101918.06
2018-10-19T02:29:51.018Z,101919.20
2018-10-19T02:32:23.085Z,101916.39
2018-10-19T02:34:54.593Z,101918.23
2018-10-19T02:37:27.664Z,101922.34
2018-10-19T02:39:58.829Z,101921.51
2018-10-19T02:42:29.329Z,101918.89
2018-10-19T02:47:53.864Z,101915.86
2018-10-19T02:50:23.375Z,101919.82
2018-10-19T02:52:54.049Z,101924.04
2018-10-19T02:55:23.464Z,101923.75
2018-10-19T02:57:53.424Z,101923.75
2018-10-19T03:00:24.708Z,101932.25
2018-10-19T03:02:55.525Z,101933.74
2018-10-19T03:05:28.497Z,101931.23
2018-10-19T03:07:58.267Z,101937.88
2018-10-19T03:10:30.043Z,101939.84
2018-10-19T03:13:03.271Z,101868.44
2018-10-19T03:15:33.338Z,101938.37
2018-10-19T03:18:16.371Z,101934.90
2018-10-19T03:23:12.279Z,101936.62
2018-10-19T03:28:21.933Z,101925.01
2018-10-19T03:30:53.749Z,101924.36
2018-10-19T03:33:24.992Z,101889.97
2018-10-19T03:35:54.269Z,101930.89
2018-10-19T03:38:24.442Z,101927.56
2018-10-19T03:40:57.158Z,101926.22
2018-10-19T03:43:31.531Z,101923.23
2018-10-19T03:46:01.632Z,101929.09
2018-10-19T03:48:36.451Z,101932.33
2018-10-19T03:51:07.212Z,101936.91
2018-10-19T03:53:38.043Z,101933.64
2018-10-19T03:56:10.768Z,101866.43
2018-10-19T03:58:40.264Z,101936.80
2018-10-19T04:01:10.944Z,101939.86
2018-10-19T04:03:44.937Z,101935.07
2018-10-19T04:06:15.296Z,101941.17
2018-10-19T04:08:45.929Z,101938.87
2018-10-19T04:11:18.274Z,101937.12
2018-10-19T04:13:50.399Z,101941.16
2018-10-19T04:16:20.304Z,101946.03
2018-10-19T04:18:51.778Z,101953.09
2018-10-19T04:21:23.216Z,101948.80
2018-10-19T04:23:56.285Z,101941.76
2018-10-19T04:26:25.785Z,101946.02
2018-10-19T04:28:56.615Z,101945.17
2018-10-19T04:31:28.922Z,101941.96
2018-10-19T04:33:58.210Z,101942.59
2018-10-19T04:36:28.541Z,101941.23
2018-10-19T04:39:03.717Z,101941.96
2018-10-19T04:41:34.626Z,101936.94
2018-10-19T04:44:06.885Z,101937.71
2018-10-19T04:46:39.115Z,101935.80
2018-10-19T04:49:11.441Z,101937.30
2018-10-19T04:51:42.422Z,101940.55
2018-10-19T04:54:28.111Z,101938.76
2018-10-19T04:56:58.907Z,101943.27
2018-10-19T04:59:32.153Z,101940.80
2018-10-19T05:02:10.801Z,101945.05
2018-10-19T05:04:40.538Z,101959.66
2018-10-19T05:07:10.149Z,101961.80
2018-10-19T05:09:40.025Z,101959.66
2018-10-19T05:12:09.891Z,101960.00
2018-10-19T05:14:39.240Z,101961.89
2018-10-19T05:17:10.554Z,101967.30
2018-10-19T05:22:21.862Z,101907.78
2018-10-19T05:24:52.353Z,101952.11
2018-10-19T05:27:23.509Z,101949.43
2018-10-19T05:29:59.227Z,101947.82
2018-10-19T05:32:32.597Z,101955.40
2018-10-19T05:35:02.244Z,101952.81
2018-10-19T05:37:32.445Z,101954.55
2018-10-19T05:40:04.045Z,101957.62
2018-10-19T05:42:35.802Z,101952.96
2018-10-19T05:45:17.586Z,101957.56
2018-10-19T05:47:52.214Z,101962.70
2018-10-19T05:50:21.682Z,101964.50
2018-10-19T05:52:51.633Z,101964.56
2018-10-19T05:55:21.872Z,101964.92
2018-10-19T05:57:58.711Z,101976.30
2018-10-19T06:00:28.429Z,101975.96
2018-10-19T06:02:58.034Z,101970.70
2018-10-19T06:05:27.991Z,101973.13
2018-10-19T06:07:59.075Z,101968.98
2018-10-19T06:10:29.097Z,101973.64
2018-10-19T06:12:59.767Z,101962.41
2018-10-19T06:15:33.312Z,101975.94
2018-10-19T06:18:03.242Z,101970.67
2018-10-19T06:20:34.399Z,101973.97
2018-10-19T06:23:04.878Z,101977.36
2018-10-19T06:25:51.458Z,101980.62
2018-10-19T06:28:21.318Z,101979.64
2018-10-19T06:31:00.140Z,101985.58
2018-10-19T06:33:32.875Z,101983.97
2018-10-19T06:36:13.565Z,101985.06
2018-10-19T06:38:58.478Z,102003.83
2018-10-19T06:41:39.662Z,101993.50
2018-10-19T06:44:16.302Z,101984.94
2018-10-19T06:46:50.586Z,101992.28
2018-10-19T06:49:20.592Z,101990.66
2018-10-19T06:51:54.491Z,101990.30
2018-10-19T06:55:16.532Z,101991.85
2018-10-19T06:57:53.556Z,101988.84
2018-10-19T07:00:30.373Z,101997.63
2018-10-19T07:02:59.719Z,102003.48
2018-10-19T07:05:31.290Z,101996.52
2018-10-19T07:08:01.884Z,102003.80
2018-10-19T07:10:33.163Z,101999.34
2018-10-19T07:13:05.562Z,101992.80
2018-10-19T07:15:36.536Z,101993.94
2018-10-19T07:18:07.681Z,101991.30
2018-10-19T07:20:37.139Z,101998.03
2018-10-19T07:23:06.929Z,101999.86
2018-10-19T07:25:37.309Z,102005.80
2018-10-19T07:28:06.934Z,101997.02
2018-10-19T07:30:37.130Z,102001.58
2018-10-19T07:33:10.282Z,102000.03
2018-10-19T07:35:41.898Z,102001.38
2018-10-19T07:38:11.305Z,102001.38
2018-10-19T07:40:43.584Z,101999.99
2018-10-19T07:43:14.798Z,102001.86
2018-10-19T07:45:46.774Z,102004.59
2018-10-19T07:48:22.709Z,102002.42
2018-10-19T07:50:52.837Z,102010.83
2018-10-19T07:53:24.495Z,102009.26
2018-10-19T07:56:06.310Z,102012.87
2018-10-19T07:58:39.825Z,102019.89
2018-10-19T08:01:10.240Z,102014.80
2018-10-19T08:03:40.428Z,102011.44
2018-10-19T08:06:13.034Z,102018.23
2018-10-19T08:08:45.895Z,102016.75
2018-10-19T08:14:20.648Z,102028.45
2018-10-19T08:16:51.808Z,102031.63
2018-10-19T08:19:21.149Z,102030.96
2018-10-19T08:21:53.047Z,102040.79
2018-10-19T08:24:24.544Z,102032.66
2018-10-19T08:26:58.250Z,102042.00
2018-10-19T08:29:30.301Z,102036.92
2018-10-19T08:32:00.258Z,102036.27
2018-10-19T08:34:30.012Z,102039.80
2018-10-19T08:37:03.702Z,102045.12
2018-10-19T08:39:35.101Z,102046.76
2018-10-19T08:42:04.568Z,102046.59
2018-10-19T08:44:33.975Z,102046.33
2018-10-19T08:47:06.692Z,102048.44
2018-10-19T08:49:42.987Z,102054.30
2018-10-19T08:52:16.500Z,102054.43
2018-10-19T08:54:46.798Z,102054.55
2018-10-19T08:57:18.662Z,102049.41
2018-10-19T08:59:49.598Z,102059.95
2018-10-19T09:02:19.174Z,102053.77
2018-10-19T09:04:50.065Z,102062.06
2018-10-19T09:07:23.261Z,102059.45
2018-10-19T09:09:54.252Z,102055.03
2018-10-19T09:12:25.104Z,102054.84
2018-10-19T09:15:05.589Z,102055.88
2018-10-19T09:17:36.597Z,102047.50
2018-10-19T09:20:06.757Z,102043.73
2018-10-19T09:22:36.586Z,102041.84
2018-10-19T09:25:10.350Z,102044.27
2018-10-19T09:27:44.518Z,102042.70
2018-10-19T09:30:19.589Z,102041.97
2018-10-19T09:32:50.252Z,102036.42
2018-10-19T09:35:21.297Z,102031.88
2018-10-19T09:38:00.817Z,102031.54
2018-10-19T09:40:33.671Z,102033.54
2018-10-19T09:43:05.504Z,102036.59
2018-10-19T09:45:35.267Z,102033.19
2018-10-19T09:48:05.765Z,102036.96
2018-10-19T09:50:47.012Z,102037.20
2018-10-19T09:53:21.522Z,102034.67
2018-10-19T09:56:07.696Z,102032.03
2018-10-19T09:58:39.737Z,102028.83
2018-10-19T10:01:18.457Z,102029.86
2018-10-19T10:03:55.060Z,102033.08
2018-10-19T10:06:25.502Z,102029.88
2018-10-19T10:08:56.741Z,102035.91
2018-10-19T10:11:39.560Z,102026.94
2018-10-19T10:14:10.460Z,102032.28
2018-10-19T10:16:51.596Z,101968.13
2018-10-19T10:19:23.771Z,102021.14
2018-10-19T10:21:59.688Z,102019.35
2018-10-19T10:24:47.968Z,102017.46
2018-10-19T10:27:30.404Z,101961.41
2018-10-19T10:30:20.721Z,102015.05
2018-10-19T10:32:55.674Z,102020.83
2018-10-19T10:38:16.756Z,102015.28
2018-10-19T10:41:04.965Z,102012.11
2018-10-19T10:43:42.490Z,102007.31
2018-10-19T10:46:26.827Z,102004.32
2018-10-19T10:49:11.429Z,102006.37
2018-10-19T10:51:50.401Z,101998.22
2018-10-19T10:54:20.836Z,101994.84
2018-10-19T10:57:08.159Z,101992.46
2018-10-19T10:59:39.813Z,101991.12
2018-10-19T11:02:11.299Z,101985.81
2018-10-19T11:04:41.454Z,101976.25
2018-10-19T11:07:16.003Z,101971.55
2018-10-19T11:09:45.306Z,101973.88
2018-10-19T11:12:16.735Z,101977.50
2018-10-19T11:14:50.323Z,101978.23
2018-10-19T11:17:24.300Z,101977.91
2018-10-19T11:19:57.468Z,101975.03
2018-10-19T11:22:27.776Z,101966.97
2018-10-19T11:24:58.470Z,101964.29
2018-10-19T11:27:28.567Z,101962.91
2018-10-19T11:30:04.700Z,101965.53
2018-10-19T11:32:44.265Z,101923.33
2018-10-19T11:35:16.586Z,101968.11
2018-10-19T11:37:50.251Z,101970.55
2018-10-19T11:40:32.698Z,101971.54
2018-10-19T11:43:32.465Z,101966.61
2018-10-19T11:46:10.613Z,101961.83
2018-10-19T11:48:47.837Z,101968.20
2018-10-19T11:51:19.202Z,101969.78
2018-10-19T11:53:59.693Z,101963.59
2018-10-19T11:56:31.988Z,101970.70
2018-10-19T12:01:40.861Z,101979.66
2018-10-19T12:04:12.415Z,101970.86
2018-10-19T12:06:49.777Z,101975.63
2018-10-19T12:09:20.206Z,101975.09
2018-10-19T12:11:57.992Z,101976.27
2018-10-19T12:14:32.202Z,101969.52
2018-10-19T12:17:03.212Z,101958.36
2018-10-19T12:19:42.264Z,101960.74
2018-10-19T12:22:15.883Z,101958.36
2018-10-19T12:24:48.535Z,101959.20
2018-10-19T12:27:30.360Z,101962.42
2018-10-19T12:30:04.427Z,101974.39
2018-10-19T12:32:41.163Z,101957.33
2018-10-19T12:35:12.844Z,101958.02
2018-10-19T12:37:43.728Z,101959.53
2018-10-19T12:42:50.083Z,101945.34
2018-10-19T12:46:51.552Z,101946.19
2018-10-19T12:49:24.374Z,101935.70
2018-10-19T12:51:56.368Z,101935.04
2018-10-19T12:54:30.503Z,101937.40
2018-10-19T12:57:01.419Z,101936.72
2018-10-19T13:01:55.855Z,101931.13
2018-10-19T13:04:25.316Z,101935.07
2018-10-19T13:06:55.166Z,101930.60
2018-10-19T13:09:32.957Z,101926.88
2018-10-19T13:12:04.209Z,101926.95
2018-10-19T13:14:36.558Z,101919.73
2018-10-19T13:17:08.619Z,101913.52
2018-10-19T13:19:38.623Z,101922.55
2018-10-19T13:22:10.909Z,101918.27
2018-10-19T13:24:46.562Z,101925.72
2018-10-19T13:27:17.690Z,101921.21
2018-10-19T13:29:48.309Z,101926.37
2018-10-19T13:32:24.907Z,101918.35
2018-10-19T13:35:00.059Z,101911.99
2018-10-19T13:37:36.245Z,101921.34
2018-10-19T13:40:09.357Z,101921.34
2018-10-19T13:42:41.485Z,101916.91
2018-10-19T13:45:18.199Z,101908.58
2018-10-19T13:47:52.345Z,101912.19
2018-10-19T13:50:25.383Z,101904.11
2018-10-19T13:52:59.253Z,101900.34
2018-10-19T13:55:38.258Z,101896.80
2018-10-19T13:58:11.151Z,101899.88
2018-10-19T14:00:41.893Z,101892.05
2018-10-19T14:03:11.715Z,101895.44
2018-10-19T14:05:41.457Z,101881.39
2018-10-19T14:08:13.676Z,101879.41
2018-10-19T14:10:44.074Z,101878.72
2018-10-19T14:16:14.043Z,101881.25
2018-10-19T14:18:50.276Z,101889.53
2018-10-19T14:21:21.232Z,101876.19
2018-10-19T14:23:51.133Z,101880.28
2018-10-19T14:26:22.372Z,101882.31
2018-10-19T14:28:55.231Z,101885.32
2018-10-19T14:31:37.295Z,101882.13
2018-10-19T14:34:16.737Z,101884.32
2018-10-19T14:36:51.379Z,101888.38
2018-10-19T14:39:21.780Z,101887.89
2018-10-19T14:41:51.792Z,101879.11
2018-10-19T14:44:23.969Z,101878.06
2018-10-19T14:46:59.110Z,101881.45
2018-10-19T14:49:28.282Z,101886.02
2018-10-19T14:52:02.839Z,101885.84
2018-10-19T14:54:42.816Z,101881.11
2018-10-19T14:57:12.957Z,101877.72
2018-10-19T14:59:44.980Z,101875.22
2018-10-19T15:02:16.816Z,101873.34
2018-10-19T15:05:06.882Z,101869.04
2018-10-19T15:07:39.306Z,101883.39
2018-10-19T15:10:16.968Z,101887.60
2018-10-19T15:12:47.902Z,101887.75
2018-10-19T15:15:21.737Z,101888.75
2018-10-19T15:17:57.075Z,101886.89
2018-10-19T15:20:36.626Z,101887.33
2018-10-19T15:23:09.276Z,101890.31
2018-10-19T15:25:40.818Z,101894.14
2018-10-19T15:28:14.713Z,101893.91
2018-10-19T15:30:51.538Z,101896.39
2018-10-19T15:33:22.577Z,101897.05
2018-10-19T15:36:04.773Z,101902.12
2018-10-19T15:41:16.078Z,101916.20
2018-10-19T15:43:47.589Z,101904.91
2018-10-19T15:46:21.455Z,101908.89
2018-10-19T15:48:53.191Z,101913.23
2018-10-19T15:51:22.990Z,101920.52
2018-10-19T15:53:53.696Z,101923.82
2018-10-19T15:56:34.126Z,101933.36
2018-10-19T15:59:04.033Z,101933.09
2018-10-19T16:01:35.414Z,101930.77
2018-10-19T16:04:07.751Z,101936.03
2018-10-19T16:06:42.799Z,101931.39
2018-10-19T16:09:14.774Z,101925.54
2018-10-19T16:11:46.203Z,101931.43
2018-10-19T16:14:17.683Z,101928.06
2018-10-19T16:16:51.373Z,101933.37
2018-10-19T16:19:22.082Z,101935.27
2018-10-19T16:21:55.022Z,101930.20
2018-10-19T16:24:29.718Z,101933.86
2018-10-19T16:27:01.392Z,101943.15
2018-10-19T16:29:38.039Z,101952.85
2018-10-19T16:32:07.837Z,101949.89
2018-10-19T16:34:39.449Z,101883.42
2018-10-19T16:37:09.911Z,101951.48
2018-10-19T16:39:39.131Z,101947.22
2018-10-19T16:42:28.311Z,101942.39
2018-10-19T16:45:00.309Z,101941.45
2018-10-19T16:47:37.815Z,101950.78
2018-10-19T16:50:07.267Z,101947.52
2018-10-19T16:52:37.077Z,101958.09
2018-10-19T16:55:08.303Z,101955.92
2018-10-19T16:57:38.312Z,101959.36
2018-10-19T17:03:11.763Z,101960.70
2018-10-19T17:05:43.185Z,101968.39
2018-10-19T17:08:14.477Z,101963.79
2018-10-19T17:10:44.374Z,101864.52
2018-10-19T17:13:14.771Z,101957.87
2018-10-19T17:15:48.379Z,101971.47
2018-10-19T17:18:19.843Z,101977.42
2018-10-19T17:20:49.581Z,101981.89
2018-10-19T17:23:24.884Z,101983.55
2018-10-19T17:25:54.883Z,102000.61
2018-10-19T17:28:30.146Z,102005.33
2018-10-19T17:31:05.679Z,102008.11
2018-10-19T17:33:37.177Z,102016.59
2018-10-19T17:36:09.097Z,102009.72
2018-10-19T17:38:39.038Z,102017.58
2018-10-19T17:41:10.578Z,102011.61
2018-10-19T17:43:43.309Z,102017.97
2018-10-19T17:46:15.386Z,102023.23
2018-10-19T17:48:48.041Z,102033.63
2018-10-19T17:51:18.929Z,102037.95
2018-10-19T17:53:50.060Z,102040.85
2018-10-19T17:56:21.302Z,102048.72
2018-10-19T17:58:53.017Z,102052.92
2018-10-19T18:01:27.986Z,102050.19
2018-10-19T18:04:05.953Z,102049.34
2018-10-19T18:06:36.432Z,102047.73
2018-10-19T18:11:57.583Z,102065.49
2018-10-19T18:14:28.162Z,102063.80
2018-10-19T18:16:57.747Z,102068.47
2018-10-19T18:19:27.834Z,102065.18
2018-10-19T18:22:05.902Z,102065.86
2018-10-19T18:24:36.679Z,102067.38
2018-10-19T18:27:09.918Z,102066.22
2018-10-19T18:29:42.897Z,102069.63
2018-10-19T18:32:18.908Z,102069.85
2018-10-19T18:34:53.158Z,102077.53
2018-10-19T18:37:24.381Z,102076.27
2018-10-19T18:40:02.409Z,102081.73
2018-10-19T18:42:34.023Z,102082.02
2018-10-19T18:45:16.457Z,102083.20
2018-10-19T18:47:46.297Z,102088.95
2018-10-19T18:50:17.807Z,102088.09
2018-10-19T18:52:51.492Z,102091.09
2018-10-19T18:55:22.783Z,102089.19
2018-10-19T18:57:52.669Z,102093.14
2018-10-19T19:00:28.426Z,102093.42
2018-10-19T19:03:01.299Z,102098.17
2018-10-19T19:05:36.137Z,102089.89
2018-10-19T19:08:09.079Z,102089.30
2018-10-19T19:10:41.344Z,102091.86
2018-10-19T19:13:19.390Z,102091.37
2018-10-19T19:15:51.150Z,102089.17
2018-10-19T19:18:20.616Z,102095.06
2018-10-19T19:20:51.444Z,102092.44
2018-10-19T19:23:21.372Z,102099.09
2018-10-19T19:26:00.448Z,102096.33
2018-10-19T19:28:31.942Z,102100.80
2018-10-19T19:31:08.201Z,102100.58
2018-10-19T19:33:54.263Z,102096.12
2018-10-19T19:36:26.657Z,102096.12
2018-10-19T19:41:25.341Z,102100.78
2018-10-19T19:43:57.560Z,102099.08
2018-10-19T19:46:28.665Z,102091.80
2018-10-19T19:49:09.367Z,102086.05
2018-10-19T19:51:39.238Z,102100.89
2018-10-19T19:54:10.370Z,102115.30
2018-10-19T19:56:43.225Z,102117.00
2018-10-19T19:59:12.460Z,102127.48
2018-10-19T20:01:43.901Z,102122.11
2018-10-19T20:04:18.791Z,102116.22
2018-10-19T20:06:48.723Z,102118.75
2018-10-19T20:09:18.661Z,102117.94
2018-10-19T20:11:50.130Z,102113.55
2018-10-19T20:14:20.737Z,102116.55
2018-10-19T20:16:57.471Z,102116.31
2018-10-19T20:19:30.448Z,102112.97
2018-10-19T20:22:03.353Z,102111.34
2018-10-19T20:24:33.167Z,102118.42
2018-10-19T20:27:02.610Z,102113.55
2018-10-19T20:29:37.576Z,102119.48
2018-10-19T20:32:08.196Z,102119.32
2018-10-19T20:34:41.448Z,102112.65
2018-10-19T20:37:11.803Z,102107.13
2018-10-19T20:39:43.500Z,102112.04
2018-10-19T20:42:17.290Z,102120.37
2018-10-19T20:44:47.242Z,102127.48
2018-10-19T20:47:17.717Z,102125.00
2018-10-19T20:49:50.885Z,102128.20
2018-10-19T20:52:24.233Z,102086.76
2018-10-19T20:54:57.761Z,102133.51
2018-10-19T20:57:28.000Z,102138.47
2018-10-19T21:00:05.915Z,102128.52
2018-10-19T21:02:36.636Z,102135.34
2018-10-19T21:05:07.176Z,102139.74
2018-10-19T21:07:38.437Z,102153.08
2018-10-19T21:10:11.017Z,102144.20
2018-10-19T21:12:41.220Z,102150.30
2018-10-19T21:15:29.167Z,102152.50
2018-10-19T21:17:59.314Z,102143.05
2018-10-19T21:20:50.139Z,102145.34
2018-10-19T21:23:21.572Z,102143.78
2018-10-19T21:25:51.616Z,102143.48
2018-10-19T21:28:27.386Z,102145.83
2018-10-19T21:31:01.272Z,102147.47
2018-10-19T21:33:31.261Z,102148.94
2018-10-19T21:36:16.256Z,102153.57
2018-10-19T21:38:53.371Z,102155.45
2018-10-19T21:41:27.323Z,102157.05
2018-10-19T21:44:00.366Z,102154.39
2018-10-19T21:46:29.937Z,102156.73
2018-10-19T21:49:01.806Z,102157.20
2018-10-19T21:51:33.378Z,102160.60
2018-10-19T21:54:03.289Z,102167.83
2018-10-19T21:56:33.262Z,102179.03
2018-10-19T21:59:07.438Z,102169.41
2018-10-19T22:01:38.966Z,102166.02
2018-10-19T22:04:09.548Z,102169.67
2018-10-19T22:06:39.071Z,102121.25
2018-10-19T22:09:10.569Z,102172.45
2018-10-19T22:11:41.771Z,102176.84
2018-10-19T22:14:20.324Z,102174.77
2018-10-19T22:16:57.442Z,102172.72
2018-10-19T22:19:28.238Z,102175.50
2018-10-19T22:21:57.675Z,102184.46
2018-10-19T22:24:28.491Z,102194.34
2018-10-19T22:27:01.061Z,102195.19
2018-10-19T22:29:31.527Z,102201.97
2018-10-19T22:32:01.019Z,102204.74
2018-10-19T22:34:30.780Z,102201.84
2018-10-19T22:37:01.979Z,102200.03
2018-10-19T22:39:36.419Z,102199.17
2018-10-19T22:42:06.850Z,102204.28
2018-10-19T22:44:36.588Z,102202.44
2018-10-19T22:47:07.897Z,102197.83
2018-10-19T22:49:38.290Z,102196.47
2018-10-19T22:52:08.370Z,102200.95
2018-10-19T22:54:39.996Z,102202.02
2018-10-19T22:57:11.337Z,102209.16
2018-10-19T22:59:42.401Z,102210.25
2018-10-19T23:02:14.077Z,102220.25
2018-10-19T23:04:44.785Z,102223.89
2018-10-19T23:07:44.862Z,102222.29
2018-10-19T23:10:14.371Z,102227.51
2018-10-19T23:12:45.198Z,102233.90
2018-10-19T23:15:22.593Z,102235.98
2018-10-19T23:17:55.816Z,102236.26
2018-10-19T23:20:30.235Z,102234.73
2018-10-19T23:23:03.125Z,102241.23
2018-10-19T23:25:33.856Z,102227.98
2018-10-19T23:28:05.751Z,102234.94
2018-10-19T23:33:00.857Z,102242.00
2018-10-19T23:35:32.843Z,102243.58
2018-10-19T23:38:08.106Z,102239.25
2018-10-19T23:40:38.776Z,102236.20
2018-10-19T23:43:09.331Z,102234.03
2018-10-19T23:45:41.033Z,102231.95
2018-10-19T23:48:11.421Z,102236.28
2018-10-19T23:50:42.793Z,102233.06
2018-10-19T23:53:13.532Z,102188.80
2018-10-19T23:55:45.663Z,102225.66
2018-10-19T23:58:17.938Z,102220.72
